createdAt,value
2023-01-31T00:01:33.071Z,2.10
2023-01-31T00:04:02.162Z,2.33
2023-01-31T00:06:31.935Z,2.60
2023-01-31T00:09:00.193Z,2.70
2023-01-31T00:11:28.567Z,2.50
2023-01-31T00:13:55.645Z,2.45
2023-01-31T00:16:23.405Z,2.60
2023-01-31T00:18:50.875Z,2.37
2023-01-31T00:21:23.636Z,2.50
2023-01-31T00:23:51.623Z,2.72
2023-01-31T00:26:29.780Z,2.75
2023-01-31T00:28:58.610Z,2.70
2023-01-31T00:31:27.722Z,2.78
2023-01-31T00:33:56.295Z,2.78
2023-01-31T00:36:25.735Z,2.72
2023-01-31T00:38:55.324Z,3.55
2023-01-31T00:41:23.908Z,2.55
2023-01-31T00:43:51.330Z,2.70
2023-01-31T00:46:20.433Z,2.60
2023-01-31T00:48:48.008Z,3.45
2023-01-31T00:51:15.400Z,2.90
2023-01-31T00:53:42.379Z,3.15
2023-01-31T00:56:18.907Z,2.85
2023-01-31T00:58:46.259Z,3.50
2023-01-31T01:01:16.306Z,3.30
2023-01-31T01:03:45.810Z,3.38
2023-01-31T01:06:13.907Z,3.00
2023-01-31T01:08:42.988Z,2.70
2023-01-31T01:11:18.513Z,2.88
2023-01-31T01:13:46.416Z,3.10
2023-01-31T01:16:30.397Z,2.75
2023-01-31T01:18:57.477Z,2.78
2023-01-31T01:21:28.496Z,2.92
2023-01-31T01:23:58.464Z,2.80
2023-01-31T01:26:28.047Z,2.70
2023-01-31T01:28:56.580Z,3.20
2023-01-31T01:31:30.324Z,2.47
2023-01-31T01:34:01.328Z,2.45
2023-01-31T01:36:29.240Z,2.80
2023-01-31T01:38:57.333Z,3.03
2023-01-31T01:41:24.164Z,2.65
2023-01-31T01:43:53.797Z,3.10
2023-01-31T01:46:36.666Z,2.75
2023-01-31T01:49:28.941Z,3.13
2023-01-31T01:52:00.251Z,3.15
2023-01-31T01:54:36.120Z,3.03
2023-01-31T01:57:06.135Z,2.88
2023-01-31T01:59:40.168Z,3.20
2023-01-31T02:02:07.504Z,2.92
2023-01-31T02:04:37.998Z,3.58
2023-01-31T02:07:07.237Z,3.00
2023-01-31T02:09:46.540Z,3.70
2023-01-31T02:12:13.656Z,2.90
2023-01-31T02:14:41.728Z,3.95
2023-01-31T02:17:16.945Z,3.90
2023-01-31T02:20:08.851Z,3.55
2023-01-31T02:23:13.330Z,3.70
2023-01-31T02:26:20.843Z,4.13
2023-01-31T02:29:00.275Z,4.57
2023-01-31T02:32:04.720Z,4.00
2023-01-31T02:34:37.224Z,4.53
2023-01-31T02:37:21.677Z,3.95
2023-01-31T02:39:54.343Z,4.22
2023-01-31T02:42:50.645Z,5.40
2023-01-31T02:45:30.947Z,4.88
2023-01-31T02:48:14.894Z,4.63
2023-01-31T02:51:14.121Z,4.90
2023-01-31T02:54:07.699Z,4.50
2023-01-31T02:56:38.094Z,5.25
2023-01-31T02:59:07.481Z,5.18
2023-01-31T03:01:59.429Z,4.85
2023-01-31T03:04:31.165Z,4.80
2023-01-31T03:07:08.498Z,5.28
2023-01-31T03:10:00.703Z,5.70
2023-01-31T03:13:01.247Z,5.20
2023-01-31T03:15:59.601Z,5.80
2023-01-31T03:18:42.147Z,5.22
2023-01-31T03:21:16.170Z,6.00
2023-01-31T03:23:48.402Z,5.57
2023-01-31T03:26:18.050Z,5.68
2023-01-31T03:28:46.575Z,5.95
2023-01-31T03:31:24.842Z,6.40
2023-01-31T03:33:55.594Z,6.38
2023-01-31T03:36:31.615Z,6.27
2023-01-31T03:39:24.947Z,7.05
2023-01-31T03:42:09.341Z,7.05
2023-01-31T03:44:58.234Z,6.88
2023-01-31T03:47:38.899Z,6.80
2023-01-31T03:50:15.512Z,6.60
2023-01-31T03:53:05.389Z,7.43
2023-01-31T03:55:42.778Z,7.82
2023-01-31T03:58:11.980Z,6.97
2023-01-31T04:00:43.323Z,7.43
2023-01-31T04:03:34.460Z,7.32
2023-01-31T04:06:01.613Z,7.85
2023-01-31T04:08:32.337Z,6.93
2023-01-31T04:11:05.787Z,7.30
2023-01-31T04:13:32.622Z,6.82
2023-01-31T04:15:59.594Z,8.35
2023-01-31T04:18:26.414Z,7.90
2023-01-31T04:20:53.180Z,6.93
2023-01-31T04:23:20.065Z,7.03
2023-01-31T04:25:46.950Z,8.00
2023-01-31T04:28:13.791Z,7.68
2023-01-31T04:30:40.564Z,7.57
2023-01-31T04:33:07.282Z,7.63
2023-01-31T04:35:34.953Z,7.38
2023-01-31T04:38:03.821Z,7.70
2023-01-31T04:40:30.668Z,8.95
2023-01-31T04:42:57.427Z,8.40
2023-01-31T04:45:24.195Z,8.77
2023-01-31T04:47:51.089Z,8.45
2023-01-31T04:50:17.866Z,8.25
2023-01-31T04:52:44.720Z,8.73
2023-01-31T04:55:12.313Z,8.00
2023-01-31T04:57:39.256Z,7.90
2023-01-31T05:00:07.386Z,7.78
2023-01-31T05:02:34.381Z,8.10
2023-01-31T05:05:01.645Z,8.15
2023-01-31T05:07:28.584Z,7.65
2023-01-31T05:09:55.533Z,7.60
2023-01-31T05:12:22.394Z,7.45
2023-01-31T05:14:49.159Z,7.93
2023-01-31T05:17:15.950Z,8.20
2023-01-31T05:19:43.855Z,7.18
2023-01-31T05:22:10.747Z,7.90
2023-01-31T05:24:37.504Z,7.97
2023-01-31T05:27:04.657Z,6.88
2023-01-31T05:29:33.555Z,7.00
2023-01-31T05:32:02.222Z,6.43
2023-01-31T05:34:32.765Z,7.47
2023-01-31T05:37:00.160Z,6.78
2023-01-31T05:39:27.581Z,7.25
2023-01-31T05:41:54.685Z,7.43
2023-01-31T05:44:21.802Z,6.32
2023-01-31T05:46:48.675Z,6.38
2023-01-31T05:49:16.202Z,6.50
2023-01-31T05:51:43.164Z,6.75
2023-01-31T05:54:11.813Z,6.50
2023-01-31T05:56:39.200Z,6.50
2023-01-31T05:59:06.376Z,6.53
2023-01-31T06:01:33.491Z,6.65
2023-01-31T06:04:00.838Z,5.95
2023-01-31T06:06:27.688Z,6.30
2023-01-31T06:08:54.446Z,6.70
2023-01-31T06:11:21.311Z,6.10
2023-01-31T06:13:49.416Z,6.18
2023-01-31T06:16:16.822Z,6.47
2023-01-31T06:18:43.633Z,6.10
2023-01-31T06:21:11.986Z,5.40
2023-01-31T06:23:38.994Z,5.50
2023-01-31T06:26:05.924Z,5.60
2023-01-31T06:28:33.048Z,5.63
2023-01-31T06:31:05.907Z,5.32
2023-01-31T06:33:45.463Z,5.78
2023-01-31T06:36:14.561Z,5.50
2023-01-31T06:38:42.239Z,5.68
2023-01-31T06:41:12.027Z,5.75
2023-01-31T06:43:38.881Z,5.55
2023-01-31T06:46:05.690Z,5.85
2023-01-31T06:48:32.735Z,6.07
2023-01-31T06:50:59.505Z,5.65
2023-01-31T06:53:26.241Z,5.55
2023-01-31T06:55:52.930Z,5.30
2023-01-31T06:58:20.796Z,5.75
2023-01-31T07:00:48.037Z,6.10
2023-01-31T07:03:15.058Z,6.30
2023-01-31T07:05:42.616Z,5.80
2023-01-31T07:08:12.811Z,6.57
2023-01-31T07:10:40.799Z,6.35
2023-01-31T07:13:07.630Z,6.00
2023-01-31T07:15:34.366Z,5.90
2023-01-31T07:18:01.202Z,6.15
2023-01-31T07:20:28.211Z,7.07
2023-01-31T07:22:59.293Z,6.63
2023-01-31T07:25:26.889Z,6.43
2023-01-31T07:27:53.634Z,6.93
2023-01-31T07:30:20.450Z,7.32
2023-01-31T07:32:47.254Z,7.03
2023-01-31T07:35:14.263Z,6.78
2023-01-31T07:37:43.386Z,6.60
2023-01-31T07:40:14.991Z,6.30
2023-01-31T07:42:42.317Z,6.43
2023-01-31T07:45:23.385Z,6.22
2023-01-31T07:47:51.102Z,6.65
2023-01-31T07:50:19.014Z,6.10
2023-01-31T07:52:45.759Z,6.05
2023-01-31T07:55:12.515Z,5.85
2023-01-31T07:57:39.325Z,6.65
2023-01-31T08:00:26.816Z,6.20
2023-01-31T08:03:12.066Z,5.93
2023-01-31T08:05:38.947Z,5.60
2023-01-31T08:08:11.638Z,6.65
2023-01-31T08:10:38.565Z,5.88
2023-01-31T08:13:06.409Z,5.93
2023-01-31T08:15:34.218Z,5.97
2023-01-31T08:18:01.767Z,5.72
2023-01-31T08:20:29.464Z,6.45
2023-01-31T08:22:59.789Z,6.43
2023-01-31T08:25:29.313Z,6.07
2023-01-31T08:27:59.755Z,5.75
2023-01-31T08:30:27.579Z,5.32
2023-01-31T08:32:54.628Z,5.97
2023-01-31T08:35:21.853Z,5.70
2023-01-31T08:37:48.879Z,5.47
2023-01-31T08:40:15.826Z,5.63
2023-01-31T08:42:42.810Z,5.57
2023-01-31T08:45:10.339Z,5.50
2023-01-31T08:47:38.737Z,5.75
2023-01-31T08:50:10.945Z,5.60
2023-01-31T08:52:42.662Z,5.07
2023-01-31T08:55:13.593Z,4.85
2023-01-31T08:57:57.873Z,5.57
2023-01-31T09:00:25.908Z,5.50
2023-01-31T09:03:00.387Z,5.53
2023-01-31T09:05:30.425Z,5.53
2023-01-31T09:07:57.388Z,4.95
2023-01-31T09:10:24.710Z,5.40
2023-01-31T09:12:51.541Z,5.40
2023-01-31T09:15:18.870Z,5.65
2023-01-31T09:17:45.834Z,5.38
2023-01-31T09:20:12.735Z,5.38
2023-01-31T09:22:39.457Z,5.15
2023-01-31T09:25:08.939Z,5.57
2023-01-31T09:27:38.424Z,5.43
2023-01-31T09:30:10.373Z,5.30
2023-01-31T09:32:38.711Z,5.73
2023-01-31T09:35:05.807Z,5.97
2023-01-31T09:37:32.534Z,5.53
2023-01-31T09:39:59.273Z,6.30
2023-01-31T09:42:34.623Z,5.90
2023-01-31T09:45:13.195Z,5.57
2023-01-31T09:47:47.465Z,4.90
2023-01-31T09:50:22.109Z,5.20
2023-01-31T09:52:49.867Z,5.55
2023-01-31T09:55:30.944Z,5.78
2023-01-31T09:58:16.748Z,5.05
2023-01-31T10:00:55.301Z,5.10
2023-01-31T10:03:44.896Z,5.45
2023-01-31T10:06:26.508Z,5.72
2023-01-31T10:08:56.918Z,5.32
2023-01-31T10:11:40.375Z,5.60
2023-01-31T10:14:30.678Z,5.75
2023-01-31T10:17:18.597Z,5.63
2023-01-31T10:19:58.453Z,5.28
2023-01-31T10:22:51.720Z,5.40
2023-01-31T10:25:34.220Z,5.07
2023-01-31T10:28:26.880Z,5.70
2023-01-31T10:31:10.946Z,5.90
2023-01-31T10:33:51.816Z,5.07
2023-01-31T10:36:27.942Z,5.47
2023-01-31T10:39:36.365Z,4.82
2023-01-31T10:42:31.788Z,4.72
2023-01-31T10:45:18.554Z,4.88
2023-01-31T10:47:52.453Z,4.40
2023-01-31T10:50:25.740Z,3.88
2023-01-31T10:53:13.826Z,4.30
2023-01-31T10:56:05.392Z,5.10
2023-01-31T10:58:32.873Z,4.13
2023-01-31T11:00:59.900Z,3.53
2023-01-31T11:03:26.822Z,4.20
2023-01-31T11:05:56.541Z,4.13
2023-01-31T11:08:34.991Z,4.30
2023-01-31T11:11:08.571Z,3.90
2023-01-31T11:13:35.433Z,4.00
2023-01-31T11:16:04.116Z,4.23
2023-01-31T11:18:38.213Z,4.05
2023-01-31T11:21:06.248Z,4.18
2023-01-31T11:23:34.974Z,3.85
2023-01-31T11:26:02.490Z,3.88
2023-01-31T11:28:36.859Z,3.78
2023-01-31T11:31:07.162Z,4.00
2023-01-31T11:33:45.304Z,3.88
2023-01-31T11:36:15.522Z,3.65
2023-01-31T11:38:42.750Z,4.00
2023-01-31T11:41:28.803Z,4.13
2023-01-31T11:44:19.486Z,4.13
2023-01-31T11:46:57.759Z,5.20
2023-01-31T11:49:28.932Z,4.20
2023-01-31T11:51:58.095Z,4.80
2023-01-31T11:54:29.300Z,4.38
2023-01-31T11:56:56.414Z,4.53
2023-01-31T11:59:28.380Z,4.28
2023-01-31T12:01:58.642Z,4.30
2023-01-31T12:04:41.716Z,4.63
2023-01-31T12:07:27.248Z,4.50
2023-01-31T12:09:54.086Z,4.45
2023-01-31T12:12:31.324Z,4.90
2023-01-31T12:15:05.934Z,4.45
2023-01-31T12:17:43.309Z,4.55
2023-01-31T12:20:27.551Z,5.22
2023-01-31T12:23:06.013Z,4.63
2023-01-31T12:25:43.201Z,4.40
2023-01-31T12:28:34.209Z,5.00
2023-01-31T12:31:19.287Z,5.43
2023-01-31T12:34:02.675Z,4.90
2023-01-31T12:36:57.375Z,4.45
2023-01-31T12:39:34.535Z,4.85
2023-01-31T12:42:04.332Z,4.78
2023-01-31T12:45:00.112Z,3.97
2023-01-31T12:48:04.766Z,4.53
2023-01-31T12:50:34.013Z,4.60
2023-01-31T12:53:22.195Z,4.43
2023-01-31T12:56:19.602Z,4.82
2023-01-31T12:59:06.302Z,4.40
2023-01-31T13:01:52.568Z,4.05
2023-01-31T13:04:37.683Z,4.30
2023-01-31T13:07:14.719Z,3.70
2023-01-31T13:09:41.692Z,4.00
2023-01-31T13:12:25.105Z,3.70
2023-01-31T13:15:06.724Z,4.03
2023-01-31T13:17:38.053Z,3.73
2023-01-31T13:20:30.288Z,3.60
2023-01-31T13:23:02.005Z,4.20
2023-01-31T13:25:28.709Z,3.80
2023-01-31T13:28:07.389Z,4.05
2023-01-31T13:30:58.276Z,3.50
2023-01-31T13:33:37.228Z,3.97
2023-01-31T13:36:32.300Z,3.88
2023-01-31T13:39:06.073Z,4.20
2023-01-31T13:41:34.287Z,4.38
2023-01-31T13:44:02.286Z,4.53
2023-01-31T13:46:52.126Z,3.80
2023-01-31T13:49:40.529Z,4.07
2023-01-31T13:52:23.412Z,4.25
2023-01-31T13:55:00.462Z,4.00
2023-01-31T13:57:46.869Z,3.72
2023-01-31T14:00:35.422Z,3.40
2023-01-31T14:03:04.749Z,3.88
2023-01-31T14:05:52.909Z,3.70
2023-01-31T14:08:52.059Z,3.83
2023-01-31T14:11:39.160Z,3.15
2023-01-31T14:14:08.892Z,3.38
2023-01-31T14:16:44.116Z,3.10
2023-01-31T14:19:19.889Z,2.80
2023-01-31T14:21:52.893Z,3.05
2023-01-31T14:24:41.480Z,3.05
2023-01-31T14:27:33.293Z,3.10
2023-01-31T14:30:06.327Z,2.67
2023-01-31T14:32:46.686Z,2.70
2023-01-31T14:35:13.427Z,2.30
2023-01-31T14:37:47.558Z,2.67
2023-01-31T14:40:57.501Z,2.75
2023-01-31T14:43:36.298Z,2.80
2023-01-31T14:46:05.855Z,3.10
2023-01-31T14:49:17.495Z,2.60
2023-01-31T14:52:03.004Z,2.47
2023-01-31T14:54:41.833Z,2.47
2023-01-31T14:57:25.478Z,2.80
2023-01-31T14:59:58.478Z,2.42
2023-01-31T15:02:31.526Z,2.50
2023-01-31T15:05:04.448Z,2.30
2023-01-31T15:07:31.419Z,2.75
2023-01-31T15:09:58.322Z,2.72
2023-01-31T15:12:53.305Z,2.88
2023-01-31T15:15:26.093Z,3.08
2023-01-31T15:17:54.415Z,2.70
2023-01-31T15:20:40.517Z,2.72
2023-01-31T15:23:14.790Z,2.40
2023-01-31T15:25:45.285Z,2.33
2023-01-31T15:28:28.323Z,2.73
2023-01-31T15:30:59.334Z,2.58
2023-01-31T15:33:29.199Z,2.30
2023-01-31T15:36:00.260Z,2.08
2023-01-31T15:38:35.341Z,2.50
2023-01-31T15:41:22.831Z,2.78
2023-01-31T15:44:12.503Z,2.35
2023-01-31T15:46:41.880Z,2.65
2023-01-31T15:49:38.606Z,2.17
2023-01-31T15:52:28.419Z,2.20
2023-01-31T15:54:58.593Z,2.33
2023-01-31T15:57:29.295Z,2.63
2023-01-31T15:59:57.037Z,2.70
2023-01-31T16:02:33.443Z,2.60
2023-01-31T16:05:00.578Z,2.30
2023-01-31T16:07:31.208Z,2.30
2023-01-31T16:10:01.978Z,2.05
2023-01-31T16:12:31.476Z,2.30
2023-01-31T16:15:04.186Z,2.50
2023-01-31T16:17:31.088Z,2.63
2023-01-31T16:19:58.289Z,2.30
2023-01-31T16:22:26.897Z,2.25
2023-01-31T16:24:59.476Z,2.45
2023-01-31T16:27:30.891Z,2.30
2023-01-31T16:29:59.685Z,2.67
2023-01-31T16:32:28.468Z,2.30
2023-01-31T16:34:56.897Z,2.60
2023-01-31T16:37:37.043Z,2.60
2023-01-31T16:40:16.939Z,2.67
2023-01-31T16:42:43.920Z,2.53
2023-01-31T16:45:29.291Z,2.70
2023-01-31T16:48:09.274Z,2.77
2023-01-31T16:50:43.374Z,2.65
2023-01-31T16:53:32.006Z,2.77
2023-01-31T16:56:14.159Z,2.97
2023-01-31T16:58:57.053Z,2.80
2023-01-31T17:01:33.223Z,2.47
2023-01-31T17:04:00.076Z,2.80
2023-01-31T17:06:27.189Z,2.85
2023-01-31T17:08:54.324Z,3.78
2023-01-31T17:11:40.878Z,3.17
2023-01-31T17:14:08.542Z,3.03
2023-01-31T17:16:35.332Z,3.33
2023-01-31T17:19:02.092Z,3.13
2023-01-31T17:21:31.863Z,3.20
2023-01-31T17:23:59.336Z,3.20
2023-01-31T17:26:26.935Z,2.72
2023-01-31T17:29:02.200Z,3.20
2023-01-31T17:31:31.193Z,3.35
2023-01-31T17:33:58.286Z,3.30
2023-01-31T17:36:25.104Z,2.90
2023-01-31T17:38:53.030Z,3.05
2023-01-31T17:41:21.109Z,3.23
2023-01-31T17:43:48.044Z,2.95
2023-01-31T17:46:17.205Z,3.15
2023-01-31T17:48:44.383Z,3.35
2023-01-31T17:51:12.076Z,3.03
2023-01-31T17:53:47.938Z,3.03
2023-01-31T17:56:16.947Z,3.20
2023-01-31T17:58:43.742Z,2.80
2023-01-31T18:01:13.868Z,3.70
2023-01-31T18:03:41.096Z,5.10
2023-01-31T18:06:08.816Z,3.75
2023-01-31T18:08:36.024Z,4.18
2023-01-31T18:11:09.260Z,3.53
2023-01-31T18:13:38.076Z,3.88
2023-01-31T18:16:07.189Z,3.55
2023-01-31T18:18:36.008Z,3.42
2023-01-31T18:21:05.564Z,3.42
2023-01-31T18:23:32.888Z,3.22
2023-01-31T18:25:59.714Z,3.20
2023-01-31T18:28:26.443Z,3.28
2023-01-31T18:30:53.266Z,3.47
2023-01-31T18:33:20.189Z,3.80
2023-01-31T18:35:56.420Z,3.28
2023-01-31T18:38:23.417Z,3.50
2023-01-31T18:40:50.214Z,4.18
2023-01-31T18:43:16.959Z,3.90
2023-01-31T18:45:43.742Z,4.03
2023-01-31T18:48:10.501Z,3.75
2023-01-31T18:50:38.336Z,3.65
2023-01-31T18:53:06.073Z,3.25
2023-01-31T18:55:33.045Z,3.33
2023-01-31T18:57:59.807Z,3.00
2023-01-31T19:00:26.732Z,3.35
2023-01-31T19:02:54.699Z,3.30
2023-01-31T19:05:22.651Z,2.60
2023-01-31T19:07:49.701Z,3.22
2023-01-31T19:10:16.922Z,3.92
2023-01-31T19:12:43.821Z,3.42
2023-01-31T19:15:12.478Z,3.83
2023-01-31T19:17:39.554Z,3.25
2023-01-31T19:20:06.895Z,3.10
2023-01-31T19:22:33.874Z,3.42
2023-01-31T19:25:00.690Z,3.47
2023-01-31T19:27:27.627Z,2.78
2023-01-31T19:29:54.556Z,3.30
2023-01-31T19:32:22.423Z,3.33
2023-01-31T19:34:54.862Z,2.92
2023-01-31T19:37:23.790Z,3.07
2023-01-31T19:39:50.574Z,2.90
2023-01-31T19:42:17.401Z,3.40
2023-01-31T19:44:44.185Z,2.85
2023-01-31T19:47:11.004Z,3.40
2023-01-31T19:49:37.736Z,3.22
2023-01-31T19:52:04.671Z,2.85
2023-01-31T19:54:31.410Z,3.77
2023-01-31T19:56:58.234Z,3.25
2023-01-31T19:59:25.005Z,2.70
2023-01-31T20:01:51.832Z,2.90
2023-01-31T20:04:18.680Z,3.00
2023-01-31T20:06:45.454Z,2.58
2023-01-31T20:09:19.890Z,2.80
2023-01-31T20:11:46.843Z,2.75
2023-01-31T20:14:13.691Z,3.05
2023-01-31T20:16:40.506Z,3.27
2023-01-31T20:19:07.677Z,2.92
2023-01-31T20:21:34.693Z,2.97
2023-01-31T20:24:01.649Z,3.25
2023-01-31T20:26:29.860Z,2.90
2023-01-31T20:28:57.346Z,2.75
2023-01-31T20:31:24.337Z,3.25
2023-01-31T20:33:52.433Z,3.05
2023-01-31T20:36:19.311Z,2.83
2023-01-31T20:38:46.272Z,3.10
2023-01-31T20:41:15.074Z,3.40
2023-01-31T20:43:42.852Z,3.47
2023-01-31T20:46:12.663Z,2.97
2023-01-31T20:48:40.946Z,3.40
2023-01-31T20:51:08.395Z,3.10
2023-01-31T20:53:35.796Z,3.00
2023-01-31T20:56:09.776Z,2.97
2023-01-31T20:58:38.870Z,3.17
2023-01-31T21:01:07.041Z,2.92
2023-01-31T21:03:35.038Z,2.75
2023-01-31T21:06:02.773Z,3.00
2023-01-31T21:08:31.614Z,3.25
2023-01-31T21:10:59.679Z,2.90
2023-01-31T21:13:29.041Z,3.10
2023-01-31T21:15:58.101Z,3.00
2023-01-31T21:18:27.602Z,3.70
2023-01-31T21:20:54.558Z,3.42
2023-01-31T21:23:24.486Z,3.20
2023-01-31T21:25:52.393Z,3.28
2023-01-31T21:28:19.205Z,3.25
2023-01-31T21:30:46.115Z,3.35
2023-01-31T21:33:12.920Z,3.35
2023-01-31T21:35:39.710Z,3.08
2023-01-31T21:38:06.421Z,2.80
2023-01-31T21:40:33.394Z,3.53
2023-01-31T21:43:00.147Z,3.15
2023-01-31T21:45:42.090Z,3.50
2023-01-31T21:48:29.565Z,3.50
2023-01-31T21:50:57.276Z,3.88
2023-01-31T21:53:24.814Z,4.10
2023-01-31T21:56:04.234Z,3.90
2023-01-31T21:58:31.308Z,4.30
2023-01-31T22:01:11.230Z,4.32
2023-01-31T22:03:39.631Z,4.25
2023-01-31T22:06:09.181Z,4.72
2023-01-31T22:08:36.537Z,4.05
2023-01-31T22:11:09.112Z,3.65
2023-01-31T22:13:36.566Z,4.00
2023-01-31T22:16:08.699Z,4.05
2023-01-31T22:18:36.599Z,5.70
2023-01-31T22:21:14.098Z,5.07
2023-01-31T22:23:45.228Z,4.18
2023-01-31T22:26:14.812Z,4.10
2023-01-31T22:28:41.733Z,4.40
2023-01-31T22:31:09.648Z,4.07
2023-01-31T22:33:39.034Z,3.63
2023-01-31T22:36:07.118Z,3.50
2023-01-31T22:38:34.139Z,4.60
2023-01-31T22:41:07.212Z,3.92
2023-01-31T22:43:40.866Z,3.22
2023-01-31T22:46:10.495Z,3.50
2023-01-31T22:48:37.333Z,3.90
2023-01-31T22:51:06.307Z,3.40
2023-01-31T22:53:35.607Z,3.13
2023-01-31T22:56:08.359Z,3.58
2023-01-31T22:58:35.153Z,3.15
2023-01-31T23:01:02.371Z,3.67
2023-01-31T23:03:29.412Z,3.17
2023-01-31T23:05:56.244Z,3.55
2023-01-31T23:08:23.095Z,3.50
2023-01-31T23:10:49.835Z,3.15
2023-01-31T23:13:16.703Z,4.15
2023-01-31T23:15:43.456Z,3.13
2023-01-31T23:18:14.251Z,2.92
2023-01-31T23:20:41.070Z,2.90
2023-01-31T23:23:07.893Z,3.05
2023-01-31T23:25:34.709Z,3.13
2023-01-31T23:28:02.423Z,3.03
2023-01-31T23:30:29.321Z,3.00
2023-01-31T23:32:56.056Z,2.90
2023-01-31T23:35:22.930Z,2.60
2023-01-31T23:37:49.856Z,3.38
2023-01-31T23:40:16.810Z,3.05
2023-01-31T23:42:43.655Z,3.07
2023-01-31T23:45:10.927Z,3.22
2023-01-31T23:47:42.607Z,3.25
2023-01-31T23:50:10.913Z,3.13
2023-01-31T23:52:37.732Z,3.53
2023-01-31T23:55:05.287Z,3.20
2023-01-31T23:57:32.199Z,3.08
2023-01-31T23:59:59.150Z,2.90
